Terminal Aerodrome Forecast
Issued by NWS

Home | Current Version | Previous Version | Text Only | Print | Product List | Glossary On
Versions: 1 2 3 4 5 6 7 8 9 10 11 12 13 14 15 16 17 18 19 20 21 22 23 24 25 26 27 28 29 30 31
281
FTUS43 KGLD 061721
TAFMCK
TAF
KMCK 061721Z 0618/0718 26012KT P6SM SCT250
     FM070500 29011KT P6SM FEW250 WS020/34035KT
     FM070700 30013KT P6SM SCT200
     FM071200 30017G26KT P6SM SCT200=

USA.gov is the U.S. government's official web portal to all federal, state and local government web resources and services.